WetterOnline ( http://www.wetteronline.de )

Wetter aktuell Blaichach

Aktuelles Wetter: Oberstdorf (812m)

6-stündlich | Neueste Meldungen
Ortszeit Temperatur Wetter
Mo, 25.03. 1:00 2.8° C fast wolkenlos
So, 24.03. 19:00 8.0° C wolkenlos
So, 24.03. 13:00 16.1° C wolkenlos
So, 24.03. 7:00 -1.9° C fast wolkenlos
So, 24.03. 1:00 0.1° C wolkenlos
Sa, 23.03. 19:00 7.9° C fast wolkenlos
Sa, 23.03. 13:00 15.1° C wolkenlos
Sa, 23.03. 7:00 -2.3° C wolkenlos
Ortszeit Temperatur Wetter
Mo, 25.03. 1:30 2.4° C wolkig
Mo, 25.03. 1:20 2.4° C wolkig
Mo, 25.03. 1:10 3.2° C wolkig
Mo, 25.03. 1:00 2.8° C fast wolkenlos
Mo, 25.03. 0:40 3.1° C fast wolkenlos
Mo, 25.03. 0:30 3.3° C leicht bewölkt
Mo, 25.03. 0:00 5.9° C leicht bewölkt
So, 24.03. 23:30 4.6° C bewölkt
So, 24.03. 23:00 5.5° C bewölkt
So, 24.03. 22:30 4.9° C bewölkt
Ortszeit Relative Feuchte Sichtweite
Mo, 25.03. 1:00 87% 3.7 km
So, 24.03. 19:00 65% 17 km
So, 24.03. 13:00 32% 13 km
So, 24.03. 7:00 92% 9 km
So, 24.03. 1:00 87% 10 km
Sa, 23.03. 19:00 58% 27 km
Sa, 23.03. 13:00 29% 70 km
Sa, 23.03. 7:00 85% 70 km
Ortszeit Relative Feuchte Sichtweite
Mo, 25.03. 1:30 89% 3.5 km
Mo, 25.03. 1:20 89% -
Mo, 25.03. 1:10 85% -
Mo, 25.03. 1:00 87% 3.7 km
Mo, 25.03. 0:40 86% -
Mo, 25.03. 0:30 84% 4.6 km
Mo, 25.03. 0:00 78% 5.0 km
So, 24.03. 23:30 81% 6 km
So, 24.03. 23:00 80% 6 km
So, 24.03. 22:30 81% 9 km
Ortszeit Niederschlagsmenge Niederschlagsart
Mo, 25.03. 1:00 0.0 l/m2 in 6 Std. -
So, 24.03. 19:00 0.0 l/m2 in 12 Std. -
So, 24.03. 13:00 0.0 l/m2 in 6 Std. -
So, 24.03. 7:00 0.0 l/m2 in 12 Std. -
So, 24.03. 1:00 0.0 l/m2 in 6 Std. -
Sa, 23.03. 19:00 0.0 l/m2 in 12 Std. -
Sa, 23.03. 13:00 0.0 l/m2 in 6 Std. -
Sa, 23.03. 7:00 0.0 l/m2 in 12 Std. -
Ortszeit Niederschlagsmenge Niederschlagsart
Mo, 25.03. 1:30 0.0 l/m2 in 1 Std. -
Mo, 25.03. 1:20 keine Meldung -
Mo, 25.03. 1:10 keine Meldung -
Mo, 25.03. 1:00 0.0 l/m2 in 1 Std. -
Mo, 25.03. 0:40 keine Meldung -
Mo, 25.03. 0:30 0.0 l/m2 in 1 Std. -
Mo, 25.03. 0:00 0.0 l/m2 in 1 Std. -
So, 24.03. 23:30 0.0 l/m2 in 1 Std. -
So, 24.03. 23:00 0.0 l/m2 in 1 Std. -
So, 24.03. 22:30 0.0 l/m2 in 1 Std. -
Ortszeit Stärke Spitze Richtung
km/h Bft. km/h Grad Sektor
Mo, 25.03. 1:00 7 2 22 170° S
So, 24.03. 19:00 11 2 32 150° SO
So, 24.03. 13:00 4 1 11 260° W
So, 24.03. 7:00 4 1 11 190° S
So, 24.03. 1:00 7 2 18 150° SO
Sa, 23.03. 19:00 14 3 22 170° S
Sa, 23.03. 13:00 4 1 7 200° S
Sa, 23.03. 7:00 4 1 11 150° SO
Ortszeit Stärke Spitze Richtung
km/h Bft. km/h Grad Sektor
Mo, 25.03. 1:30 7 2 11 160° S
Mo, 25.03. 1:20 7 2 - 160° S
Mo, 25.03. 1:10 6 1 - 170° S
Mo, 25.03. 1:00 7 2 14 170° S
Mo, 25.03. 0:40 9 2 - 160° S
Mo, 25.03. 0:30 7 2 11 150° SO
Mo, 25.03. 0:00 14 3 22 150° SO
So, 24.03. 23:30 9 2 13 160° S
So, 24.03. 23:00 9 2 11 150° SO
So, 24.03. 22:30 7 2 11 140° SO
Ortszeit Untergrenze Bedeckung Gattung
total tief tief mittel hoch
Mo, 25.03. 1:00 2100 m 1/8 1/8 - - -
So, 24.03. 19:00 - 0/8 0/8 - - -
So, 24.03. 13:00 - 0/8 0/8 - - -
So, 24.03. 7:00 9000 m 1/8 0/8 - - -
So, 24.03. 1:00 - 0/8 0/8 - - -
Sa, 23.03. 19:00 10500 m 1/8 0/8 - - -
Sa, 23.03. 13:00 - 0/8 0/8 - - -
Sa, 23.03. 7:00 - 0/8 0/8 - - -
Ortszeit Bedeckungsgrad in Achtel und Wolkenuntergrenze
Mo, 25.03. 1:30 6(2100m)
Mo, 25.03. 1:20 6(2100m)
Mo, 25.03. 1:10 6(2100m)
Mo, 25.03. 1:00 1(2100m)
Mo, 25.03. 0:40 1(1500m)
Mo, 25.03. 0:30 1(870m) 3(1500m)
Mo, 25.03. 0:00 1(1350m)
So, 24.03. 23:30 1(750m) 7(2100m) 7(2400m)
So, 24.03. 23:00 7(690m) 7(2400m) 6(2100m)
So, 24.03. 22:30 7(2400m) 4(2100m) 7(2400m)
Ortszeit Stationsdruck (hPa) Tendenz (hPa in 3 Std.)
Mo, 25.03. 1:00 927 - 2,0
So, 24.03. 19:00 928 + 1,1
So, 24.03. 13:00 928 - 1,2
So, 24.03. 7:00 930 0,0
So, 24.03. 1:00 932 - 1,5
Sa, 23.03. 19:00 932 + 0,7
Sa, 23.03. 13:00 933 - 1,2
Sa, 23.03. 7:00 934 + 0,3
Ortszeit Stationsdruck (hPa) Tendenz (hPa in 3 Std.)
Mo, 25.03. 1:30 927 - 2,1
Mo, 25.03. 1:20 927 keine Meldung
Mo, 25.03. 1:10 927 keine Meldung
Mo, 25.03. 1:00 927 - 2,0
Mo, 25.03. 0:40 927 keine Meldung
Mo, 25.03. 0:30 928 - 1,5
Mo, 25.03. 0:00 928 - 0,5
So, 24.03. 23:30 929 + 0,3
So, 24.03. 23:00 929 + 0,5
So, 24.03. 22:30 929 + 0,9
Ortszeit Schneehöhe (cm)
Mo, 25.03. 1:00 -
So, 24.03. 19:00 0
So, 24.03. 13:00 0
So, 24.03. 7:00 0
So, 24.03. 1:00 0
Sa, 23.03. 19:00 0
Sa, 23.03. 13:00 -
Sa, 23.03. 7:00 3
Ortszeit Schneehöhe (cm)
Mo, 25.03. 1:30 -
Mo, 25.03. 1:20 -
Mo, 25.03. 1:10 -
Mo, 25.03. 1:00 -
Mo, 25.03. 0:40 -
Mo, 25.03. 0:30 -
Mo, 25.03. 0:00 -
So, 24.03. 23:30 -
So, 24.03. 23:00 -
So, 24.03. 22:30 -
Link zu dieser Seite / Seite empfehlen

Das Wetter in ...